createdAt,value
2023-02-22T00:03:08.148Z,99.90
2023-02-22T00:08:11.508Z,99.90
2023-02-22T00:13:15.009Z,99.90
2023-02-22T00:18:19.290Z,99.90
2023-02-22T00:23:23.133Z,99.90
2023-02-22T00:28:25.963Z,99.90
2023-02-22T00:33:29.051Z,99.90
2023-02-22T00:38:31.504Z,99.90
2023-02-22T00:43:34.541Z,99.90
2023-02-22T00:48:37.087Z,99.90
2023-02-22T00:53:39.666Z,99.90
2023-02-22T00:58:42.177Z,99.90
2023-02-22T01:03:45.009Z,99.90
2023-02-22T01:08:48.712Z,99.90
2023-02-22T01:13:54.232Z,99.90
2023-02-22T01:18:57.166Z,99.90
2023-02-22T01:23:59.692Z,99.90
2023-02-22T01:29:02.286Z,99.90
2023-02-22T01:34:04.772Z,99.90
2023-02-22T01:39:07.345Z,99.90
2023-02-22T01:44:38.726Z,99.90
2023-02-22T01:49:50.071Z,99.90
2023-02-22T01:54:58.792Z,99.90
2023-02-22T02:00:11.447Z,99.90
2023-02-22T02:05:19.333Z,99.90
2023-02-22T02:10:24.378Z,99.90
2023-02-22T02:15:33.309Z,99.90
2023-02-22T02:20:59.382Z,99.90
2023-02-22T02:26:03.948Z,99.90
2023-02-22T02:31:39.103Z,99.90
2023-02-22T02:37:04.879Z,99.90
2023-02-22T02:42:15.694Z,99.90
2023-02-22T02:47:23.966Z,99.90
2023-02-22T02:52:29.188Z,99.90
2023-02-22T02:57:31.693Z,99.90
2023-02-22T03:03:10.438Z,99.90
2023-02-22T03:08:41.881Z,99.90
2023-02-22T03:14:07.349Z,99.90
2023-02-22T03:19:32.671Z,99.90
2023-02-22T03:24:42.847Z,99.90
2023-02-22T03:29:47.275Z,99.90
2023-02-22T03:34:57.323Z,99.90
2023-02-22T03:40:15.995Z,99.90
2023-02-22T03:45:24.127Z,99.90
2023-02-22T03:50:32.053Z,99.90
2023-02-22T03:55:35.348Z,99.90
2023-02-22T04:00:39.475Z,99.90
2023-02-22T04:05:42.338Z,99.90
2023-02-22T04:10:45.130Z,99.90
2023-02-22T04:15:49.772Z,99.90
2023-02-22T04:20:53.415Z,99.90
2023-02-22T04:26:08.213Z,99.90
2023-02-22T04:31:11.267Z,99.90
2023-02-22T04:36:16.103Z,99.90
2023-02-22T04:41:20.701Z,99.90
2023-02-22T04:46:23.771Z,99.90
2023-02-22T04:51:27.880Z,99.90
2023-02-22T04:56:35.241Z,99.90
2023-02-22T05:01:38.357Z,99.90
2023-02-22T05:06:40.852Z,99.90
2023-02-22T05:11:43.447Z,99.90
2023-02-22T05:16:48.117Z,99.90
2023-02-22T05:21:50.635Z,99.90
2023-02-22T05:26:53.355Z,99.90
2023-02-22T05:31:56.049Z,99.90
2023-02-22T05:36:58.858Z,99.90
2023-02-22T05:42:01.346Z,99.90
2023-02-22T05:47:03.923Z,99.90
2023-02-22T05:52:06.468Z,99.90
2023-02-22T05:57:09.225Z,99.90
2023-02-22T06:02:11.872Z,99.90
2023-02-22T06:07:14.849Z,99.90
2023-02-22T06:12:17.589Z,99.90
2023-02-22T06:17:20.682Z,99.90
2023-02-22T06:22:23.392Z,99.90
2023-02-22T06:27:25.910Z,99.90
2023-02-22T06:32:28.842Z,99.90
2023-02-22T06:37:31.392Z,99.90
2023-02-22T06:42:33.911Z,99.90
2023-02-22T06:47:41.365Z,99.90
2023-02-22T06:52:43.991Z,99.90
2023-02-22T06:57:46.606Z,99.90
2023-02-22T07:02:49.273Z,99.90
2023-02-22T07:07:54.985Z,99.90
2023-02-22T07:12:58.065Z,99.90
2023-02-22T07:18:01.582Z,99.90
2023-02-22T07:23:05.798Z,99.90
2023-02-22T07:28:11.066Z,99.90
2023-02-22T07:33:14.067Z,99.90
2023-02-22T07:38:18.512Z,99.90
2023-02-22T07:43:31.570Z,99.90
2023-02-22T07:53:37.737Z,99.90
2023-02-22T07:58:40.320Z,99.90
2023-02-22T08:03:42.992Z,99.90
2023-02-22T08:08:48.718Z,99.90
2023-02-22T08:13:51.211Z,99.90
2023-02-22T08:18:53.822Z,99.90
2023-02-22T08:23:56.396Z,99.90
2023-02-22T08:28:58.910Z,99.90
2023-02-22T08:34:01.422Z,99.90
2023-02-22T08:39:04.007Z,99.90
2023-02-22T08:44:06.585Z,99.90
2023-02-22T08:49:09.259Z,99.90
2023-02-22T08:54:12.055Z,99.90
2023-02-22T08:59:15.064Z,99.90
2023-02-22T09:04:17.841Z,99.90
2023-02-22T09:09:21.524Z,99.90
2023-02-22T09:14:24.058Z,98.60
2023-02-22T09:19:26.717Z,99.90
2023-02-22T09:24:29.466Z,99.90
2023-02-22T09:29:31.957Z,99.90
2023-02-22T09:34:35.416Z,99.90
2023-02-22T09:39:38.212Z,99.30
2023-02-22T09:45:06.048Z,98.30
2023-02-22T09:50:23.509Z,97.00
2023-02-22T09:55:28.821Z,99.80
2023-02-22T10:00:38.852Z,99.90
2023-02-22T10:11:23.521Z,95.00
2023-02-22T10:16:53.306Z,97.60
2023-02-22T10:22:20.443Z,96.80
2023-02-22T10:27:30.159Z,97.90
2023-02-22T10:32:45.495Z,96.10
2023-02-22T10:37:53.337Z,96.80
2023-02-22T10:42:55.886Z,91.30
2023-02-22T10:48:08.552Z,99.90
2023-02-22T10:53:12.451Z,99.10
2023-02-22T10:58:15.257Z,98.40
2023-02-22T11:03:21.876Z,90.70
2023-02-22T11:08:28.967Z,99.90
2023-02-22T11:13:36.365Z,82.90
2023-02-22T11:18:38.894Z,89.80
2023-02-22T11:23:45.030Z,68.90
2023-02-22T11:28:51.186Z,80.90
2023-02-22T11:34:02.126Z,69.10
2023-02-22T11:39:20.093Z,65.20
2023-02-22T11:44:31.169Z,64.50
2023-02-22T11:49:45.804Z,76.50
2023-02-22T11:54:54.364Z,78.50
2023-02-22T12:00:24.700Z,83.90
2023-02-22T12:05:37.175Z,70.60
2023-02-22T12:11:12.457Z,76.90
2023-02-22T12:16:44.307Z,70.80
2023-02-22T12:22:00.876Z,81.70
2023-02-22T12:27:16.012Z,93.20
2023-02-22T12:32:38.328Z,72.50
2023-02-22T12:37:59.184Z,88.20
2023-02-22T12:43:24.560Z,73.40
2023-02-22T12:48:47.321Z,71.70
2023-02-22T12:54:08.894Z,69.10
2023-02-22T12:59:29.391Z,67.20
2023-02-22T13:04:34.735Z,88.50
2023-02-22T13:10:06.695Z,92.80
2023-02-22T13:15:35.205Z,91.60
2023-02-22T13:21:06.826Z,84.70
2023-02-22T13:26:21.448Z,88.00
2023-02-22T13:31:51.717Z,86.80
2023-02-22T13:37:21.832Z,95.90
2023-02-22T13:42:39.065Z,85.90
2023-02-22T13:48:11.091Z,86.20
2023-02-22T13:53:20.887Z,86.60
2023-02-22T13:58:24.169Z,83.20
2023-02-22T14:03:40.956Z,94.50
2023-02-22T14:08:44.801Z,85.50
2023-02-22T14:14:00.871Z,69.90
2023-02-22T14:19:13.385Z,80.50
2023-02-22T14:24:17.087Z,62.00
2023-02-22T14:29:22.085Z,73.50
2023-02-22T14:34:54.505Z,73.30
2023-02-22T14:40:18.468Z,95.90
2023-02-22T14:45:36.070Z,94.30
2023-02-22T14:50:41.953Z,94.30
2023-02-22T14:55:52.801Z,82.00
2023-02-22T15:00:57.010Z,96.90
2023-02-22T15:06:08.001Z,94.10
2023-02-22T15:11:24.665Z,98.50
2023-02-22T15:16:31.969Z,96.40
2023-02-22T15:21:35.557Z,80.00
2023-02-22T15:26:51.999Z,86.80
2023-02-22T15:31:58.574Z,93.30
2023-02-22T15:37:25.532Z,97.30
2023-02-22T15:42:30.495Z,99.70
2023-02-22T15:47:33.080Z,91.50
2023-02-22T15:52:35.641Z,94.70
2023-02-22T15:57:38.441Z,97.00
2023-02-22T16:02:42.306Z,95.20
2023-02-22T16:07:49.467Z,93.50
2023-02-22T16:13:04.448Z,94.70
2023-02-22T16:18:32.126Z,91.40
2023-02-22T16:23:46.109Z,99.90
2023-02-22T16:28:53.346Z,99.90
2023-02-22T16:33:56.124Z,99.90
2023-02-22T16:38:58.733Z,99.90
2023-02-22T16:44:01.910Z,99.90
2023-02-22T16:49:05.037Z,99.50
2023-02-22T16:54:14.629Z,99.90
2023-02-22T16:59:17.464Z,99.90
2023-02-22T17:04:24.130Z,99.90
2023-02-22T17:09:26.866Z,99.90
2023-02-22T17:14:33.634Z,99.90
2023-02-22T17:19:37.660Z,99.90
2023-02-22T17:24:40.412Z,99.90
2023-02-22T17:29:45.124Z,99.90
2023-02-22T17:34:47.777Z,99.90
2023-02-22T17:39:50.346Z,93.90
2023-02-22T17:44:52.866Z,99.40
2023-02-22T17:49:57.948Z,99.90
2023-02-22T17:55:00.529Z,99.90
2023-02-22T18:00:12.473Z,98.30
2023-02-22T18:05:19.093Z,99.90
2023-02-22T18:10:21.710Z,99.90
2023-02-22T18:15:28.285Z,99.90
2023-02-22T18:20:31.384Z,99.90
2023-02-22T18:25:36.030Z,98.80
2023-02-22T18:30:41.083Z,99.90
2023-02-22T18:35:47.658Z,99.90
2023-02-22T18:41:02.148Z,99.90
2023-02-22T18:46:12.723Z,98.50
2023-02-22T18:51:17.422Z,99.80
2023-02-22T18:56:22.019Z,99.90
2023-02-22T19:01:25.126Z,99.90
2023-02-22T19:06:27.729Z,97.30
2023-02-22T19:11:31.506Z,97.70
2023-02-22T19:16:34.844Z,96.70
2023-02-22T19:21:37.597Z,99.90
2023-02-22T19:26:40.297Z,99.90
2023-02-22T19:31:43.636Z,99.90
2023-02-22T19:36:46.922Z,99.90
2023-02-22T19:41:49.755Z,99.90
2023-02-22T19:46:56.623Z,98.40
2023-02-22T19:51:59.192Z,99.90
2023-02-22T19:57:02.197Z,99.50
2023-02-22T20:02:04.688Z,99.90
2023-02-22T20:07:07.226Z,99.90
2023-02-22T20:12:09.934Z,99.90
2023-02-22T20:17:12.973Z,98.30
2023-02-22T20:22:15.536Z,98.20
2023-02-22T20:27:18.113Z,99.90
2023-02-22T20:32:21.034Z,99.90
2023-02-22T20:37:24.322Z,99.90
2023-02-22T20:42:27.627Z,99.90
2023-02-22T20:47:30.419Z,98.70
2023-02-22T20:52:32.937Z,99.90
2023-02-22T20:57:35.431Z,99.90
2023-02-22T21:02:41.267Z,99.90
2023-02-22T21:07:43.826Z,99.90
2023-02-22T21:12:47.886Z,99.90
2023-02-22T21:17:50.399Z,99.90
2023-02-22T21:22:52.890Z,99.90
2023-02-22T21:27:55.500Z,99.90
2023-02-22T21:32:58.267Z,99.90
2023-02-22T21:38:01.624Z,97.20
2023-02-22T21:43:04.154Z,99.90
2023-02-22T21:48:06.800Z,99.90
2023-02-22T21:53:09.604Z,99.90
2023-02-22T21:58:12.278Z,97.40
2023-02-22T22:03:20.637Z,98.20
2023-02-22T22:08:25.134Z,99.90
2023-02-22T22:13:28.241Z,99.90
2023-02-22T22:18:30.837Z,99.90
2023-02-22T22:23:33.311Z,99.90
2023-02-22T22:28:35.917Z,97.20
2023-02-22T22:33:41.132Z,95.10
2023-02-22T22:38:47.094Z,99.90
2023-02-22T22:43:52.511Z,99.90
2023-02-22T22:48:55.123Z,99.90
2023-02-22T22:53:59.316Z,97.70
2023-02-22T22:59:10.021Z,99.90
2023-02-22T23:04:16.579Z,98.50
2023-02-22T23:09:34.757Z,95.70
2023-02-22T23:14:44.162Z,99.80
2023-02-22T23:19:46.806Z,99.90
2023-02-22T23:24:49.349Z,99.50
2023-02-22T23:29:52.632Z,99.30
2023-02-22T23:34:55.552Z,99.90
2023-02-22T23:40:00.338Z,99.90
2023-02-22T23:45:02.829Z,99.90
2023-02-22T23:50:13.537Z,99.90
2023-02-22T23:55:20.633Z,99.90
